sensor_id;sensor_type;location;lat;lon;timestamp;P1;durP1;ratioP1;P2;durP2;ratioP2
48629;SDS011;34426;52.180;4.462;2023-10-09T00:02:18;29.45;;;9.82;;
48629;SDS011;34426;52.180;4.462;2023-10-09T00:04:43;22.27;;;8.00;;
48629;SDS011;34426;52.180;4.462;2023-10-09T00:07:10;26.27;;;8.88;;
48629;SDS011;34426;52.180;4.462;2023-10-09T00:09:36;25.42;;;9.50;;
48629;SDS011;34426;52.180;4.462;2023-10-09T00:12:02;17.50;;;6.80;;
48629;SDS011;34426;52.180;4.462;2023-10-09T00:14:29;29.58;;;7.60;;
48629;SDS011;34426;52.180;4.462;2023-10-09T00:16:55;19.55;;;7.72;;
48629;SDS011;34426;52.180;4.462;2023-10-09T00:19:21;22.08;;;8.35;;
48629;SDS011;34426;52.180;4.462;2023-10-09T00:21:47;25.50;;;7.55;;
48629;SDS011;34426;52.180;4.462;2023-10-09T00:24:15;20.58;;;8.07;;
48629;SDS011;34426;52.180;4.462;2023-10-09T00:26:40;23.27;;;7.35;;
48629;SDS011;34426;52.180;4.462;2023-10-09T00:29:08;22.20;;;7.35;;
48629;SDS011;34426;52.180;4.462;2023-10-09T00:31:33;27.13;;;7.28;;
48629;SDS011;34426;52.180;4.462;2023-10-09T00:33:59;17.60;;;7.35;;
48629;SDS011;34426;52.180;4.462;2023-10-09T00:36:25;20.35;;;7.55;;
48629;SDS011;34426;52.180;4.462;2023-10-09T00:38:50;24.85;;;6.80;;
48629;SDS011;34426;52.180;4.462;2023-10-09T00:41:17;15.70;;;6.88;;
48629;SDS011;34426;52.180;4.462;2023-10-09T00:43:43;26.85;;;7.95;;
48629;SDS011;34426;52.180;4.462;2023-10-09T00:46:08;25.10;;;7.65;;
48629;SDS011;34426;52.180;4.462;2023-10-09T00:48:34;27.58;;;7.32;;
48629;SDS011;34426;52.180;4.462;2023-10-09T00:51:00;22.10;;;8.77;;
48629;SDS011;34426;52.180;4.462;2023-10-09T00:53:26;19.45;;;7.35;;
48629;SDS011;34426;52.180;4.462;2023-10-09T00:55:52;21.73;;;7.20;;
48629;SDS011;34426;52.180;4.462;2023-10-09T00:58:20;28.10;;;6.82;;
48629;SDS011;34426;52.180;4.462;2023-10-09T01:00:45;25.35;;;7.45;;
48629;SDS011;34426;52.180;4.462;2023-10-09T01:03:11;23.95;;;7.63;;
48629;SDS011;34426;52.180;4.462;2023-10-09T01:05:38;27.75;;;7.85;;
48629;SDS011;34426;52.180;4.462;2023-10-09T01:08:03;35.33;;;8.10;;
48629;SDS011;34426;52.180;4.462;2023-10-09T01:10:29;20.90;;;7.57;;
48629;SDS011;34426;52.180;4.462;2023-10-09T01:13:08;29.05;;;7.43;;
48629;SDS011;34426;52.180;4.462;2023-10-09T01:15:35;24.30;;;7.78;;
48629;SDS011;34426;52.180;4.462;2023-10-09T01:18:01;26.67;;;7.30;;
48629;SDS011;34426;52.180;4.462;2023-10-09T01:20:27;24.95;;;7.13;;
48629;SDS011;34426;52.180;4.462;2023-10-09T01:22:53;23.80;;;6.65;;
48629;SDS011;34426;52.180;4.462;2023-10-09T01:25:19;22.95;;;6.45;;
48629;SDS011;34426;52.180;4.462;2023-10-09T01:27:45;27.73;;;6.97;;
48629;SDS011;34426;52.180;4.462;2023-10-09T01:30:11;24.17;;;7.38;;
48629;SDS011;34426;52.180;4.462;2023-10-09T01:32:36;24.10;;;6.95;;
48629;SDS011;34426;52.180;4.462;2023-10-09T01:35:02;29.38;;;7.25;;
48629;SDS011;34426;52.180;4.462;2023-10-09T01:37:27;23.98;;;7.25;;
48629;SDS011;34426;52.180;4.462;2023-10-09T01:39:53;25.33;;;7.80;;
48629;SDS011;34426;52.180;4.462;2023-10-09T01:42:21;25.67;;;7.63;;
48629;SDS011;34426;52.180;4.462;2023-10-09T01:44:46;21.65;;;7.53;;
48629;SDS011;34426;52.180;4.462;2023-10-09T01:47:12;24.48;;;7.35;;
48629;SDS011;34426;52.180;4.462;2023-10-09T01:49:37;16.83;;;6.43;;
48629;SDS011;34426;52.180;4.462;2023-10-09T01:52:03;22.58;;;7.18;;
48629;SDS011;34426;52.180;4.462;2023-10-09T01:54:28;25.40;;;9.27;;
48629;SDS011;34426;52.180;4.462;2023-10-09T01:56:54;23.45;;;7.50;;
48629;SDS011;34426;52.180;4.462;2023-10-09T01:59:21;23.70;;;6.97;;
48629;SDS011;34426;52.180;4.462;2023-10-09T02:01:46;19.35;;;7.03;;
48629;SDS011;34426;52.180;4.462;2023-10-09T02:04:12;26.92;;;8.15;;
48629;SDS011;34426;52.180;4.462;2023-10-09T02:06:37;26.58;;;7.53;;
48629;SDS011;34426;52.180;4.462;2023-10-09T02:09:03;25.27;;;7.60;;
48629;SDS011;34426;52.180;4.462;2023-10-09T02:11:28;32.90;;;6.97;;
48629;SDS011;34426;52.180;4.462;2023-10-09T02:13:54;23.63;;;7.40;;
48629;SDS011;34426;52.180;4.462;2023-10-09T02:16:20;21.17;;;7.25;;
48629;SDS011;34426;52.180;4.462;2023-10-09T02:18:46;26.77;;;8.13;;
48629;SDS011;34426;52.180;4.462;2023-10-09T02:21:11;17.85;;;7.00;;
48629;SDS011;34426;52.180;4.462;2023-10-09T02:23:37;24.35;;;7.78;;
48629;SDS011;34426;52.180;4.462;2023-10-09T02:26:03;20.10;;;7.32;;
48629;SDS011;34426;52.180;4.462;2023-10-09T02:28:28;14.80;;;6.97;;
48629;SDS011;34426;52.180;4.462;2023-10-09T02:30:54;19.13;;;7.30;;
48629;SDS011;34426;52.180;4.462;2023-10-09T02:33:21;20.85;;;7.45;;
48629;SDS011;34426;52.180;4.462;2023-10-09T02:35:46;21.00;;;7.65;;
48629;SDS011;34426;52.180;4.462;2023-10-09T02:38:12;28.67;;;7.85;;
48629;SDS011;34426;52.180;4.462;2023-10-09T02:40:37;26.00;;;8.52;;
48629;SDS011;34426;52.180;4.462;2023-10-09T02:43:03;21.50;;;7.40;;
48629;SDS011;34426;52.180;4.462;2023-10-09T02:45:28;23.70;;;7.45;;
48629;SDS011;34426;52.180;4.462;2023-10-09T02:47:53;21.63;;;8.15;;
48629;SDS011;34426;52.180;4.462;2023-10-09T02:50:20;19.88;;;7.20;;
48629;SDS011;34426;52.180;4.462;2023-10-09T02:52:46;26.83;;;8.30;;
48629;SDS011;34426;52.180;4.462;2023-10-09T02:55:12;18.20;;;6.78;;
48629;SDS011;34426;52.180;4.462;2023-10-09T02:57:37;22.88;;;7.80;;
48629;SDS011;34426;52.180;4.462;2023-10-09T03:00:03;18.55;;;7.43;;
48629;SDS011;34426;52.180;4.462;2023-10-09T03:02:29;23.25;;;7.90;;
48629;SDS011;34426;52.180;4.462;2023-10-09T03:04:55;19.10;;;7.13;;
48629;SDS011;34426;52.180;4.462;2023-10-09T03:07:22;15.98;;;7.10;;
48629;SDS011;34426;52.180;4.462;2023-10-09T03:09:47;18.40;;;7.43;;
48629;SDS011;34426;52.180;4.462;2023-10-09T03:12:13;19.27;;;7.60;;
48629;SDS011;34426;52.180;4.462;2023-10-09T03:14:39;19.30;;;7.10;;
48629;SDS011;34426;52.180;4.462;2023-10-09T03:17:05;19.42;;;7.22;;
48629;SDS011;34426;52.180;4.462;2023-10-09T03:19:31;24.83;;;8.05;;
48629;SDS011;34426;52.180;4.462;2023-10-09T03:21:57;29.63;;;7.72;;
48629;SDS011;34426;52.180;4.462;2023-10-09T03:24:24;17.08;;;7.45;;
48629;SDS011;34426;52.180;4.462;2023-10-09T03:26:50;24.10;;;8.45;;
48629;SDS011;34426;52.180;4.462;2023-10-09T03:29:15;25.50;;;7.85;;
48629;SDS011;34426;52.180;4.462;2023-10-09T03:31:41;22.98;;;8.25;;
48629;SDS011;34426;52.180;4.462;2023-10-09T03:34:06;22.45;;;7.75;;
48629;SDS011;34426;52.180;4.462;2023-10-09T03:36:32;19.30;;;7.88;;
48629;SDS011;34426;52.180;4.462;2023-10-09T03:38:57;24.73;;;7.47;;
48629;SDS011;34426;52.180;4.462;2023-10-09T03:41:24;25.40;;;7.38;;
48629;SDS011;34426;52.180;4.462;2023-10-09T03:43:50;25.17;;;7.80;;
48629;SDS011;34426;52.180;4.462;2023-10-09T03:46:15;19.58;;;7.20;;
48629;SDS011;34426;52.180;4.462;2023-10-09T03:48:41;20.33;;;7.68;;
48629;SDS011;34426;52.180;4.462;2023-10-09T03:51:06;26.77;;;8.32;;
48629;SDS011;34426;52.180;4.462;2023-10-09T03:53:31;25.17;;;7.95;;
48629;SDS011;34426;52.180;4.462;2023-10-09T03:55:57;23.52;;;7.82;;
48629;SDS011;34426;52.180;4.462;2023-10-09T03:58:24;26.45;;;8.35;;
48629;SDS011;34426;52.180;4.462;2023-10-09T04:00:49;23.08;;;9.02;;
48629;SDS011;34426;52.180;4.462;2023-10-09T04:03:15;27.05;;;8.38;;
48629;SDS011;34426;52.180;4.462;2023-10-09T04:05:40;23.58;;;7.68;;
48629;SDS011;34426;52.180;4.462;2023-10-09T04:08:06;20.05;;;7.85;;
48629;SDS011;34426;52.180;4.462;2023-10-09T04:10:31;27.85;;;8.15;;
48629;SDS011;34426;52.180;4.462;2023-10-09T04:12:57;24.80;;;8.32;;
48629;SDS011;34426;52.180;4.462;2023-10-09T04:15:24;23.65;;;7.93;;
48629;SDS011;34426;52.180;4.462;2023-10-09T04:17:49;27.02;;;8.70;;
48629;SDS011;34426;52.180;4.462;2023-10-09T04:20:15;29.50;;;8.00;;
48629;SDS011;34426;52.180;4.462;2023-10-09T04:22:40;23.00;;;7.50;;
48629;SDS011;34426;52.180;4.462;2023-10-09T04:25:06;21.85;;;8.15;;
48629;SDS011;34426;52.180;4.462;2023-10-09T04:27:32;21.58;;;7.05;;
48629;SDS011;34426;52.180;4.462;2023-10-09T04:29:58;18.90;;;7.63;;
48629;SDS011;34426;52.180;4.462;2023-10-09T04:32:25;22.17;;;8.70;;
48629;SDS011;34426;52.180;4.462;2023-10-09T04:34:50;29.95;;;8.40;;
48629;SDS011;34426;52.180;4.462;2023-10-09T04:37:15;21.15;;;7.15;;
48629;SDS011;34426;52.180;4.462;2023-10-09T04:39:41;21.15;;;7.45;;
48629;SDS011;34426;52.180;4.462;2023-10-09T04:42:06;26.13;;;8.60;;
48629;SDS011;34426;52.180;4.462;2023-10-09T04:44:32;24.85;;;8.48;;
48629;SDS011;34426;52.180;4.462;2023-10-09T04:46:57;19.50;;;7.90;;
48629;SDS011;34426;52.180;4.462;2023-10-09T04:49:24;26.15;;;8.38;;
48629;SDS011;34426;52.180;4.462;2023-10-09T04:51:50;21.42;;;7.85;;
48629;SDS011;34426;52.180;4.462;2023-10-09T04:54:15;27.60;;;7.38;;
48629;SDS011;34426;52.180;4.462;2023-10-09T04:56:41;21.60;;;8.27;;
48629;SDS011;34426;52.180;4.462;2023-10-09T04:59:07;23.55;;;7.93;;
48629;SDS011;34426;52.180;4.462;2023-10-09T05:01:32;27.38;;;7.75;;
48629;SDS011;34426;52.180;4.462;2023-10-09T05:03:58;22.45;;;7.60;;
48629;SDS011;34426;52.180;4.462;2023-10-09T05:06:24;30.73;;;7.70;;
48629;SDS011;34426;52.180;4.462;2023-10-09T05:08:50;24.73;;;8.15;;
48629;SDS011;34426;52.180;4.462;2023-10-09T05:11:15;21.08;;;7.25;;
48629;SDS011;34426;52.180;4.462;2023-10-09T05:13:41;31.67;;;9.40;;
48629;SDS011;34426;52.180;4.462;2023-10-09T05:16:07;29.10;;;8.40;;
48629;SDS011;34426;52.180;4.462;2023-10-09T05:18:34;27.23;;;7.75;;
48629;SDS011;34426;52.180;4.462;2023-10-09T05:20:59;32.42;;;8.77;;
48629;SDS011;34426;52.180;4.462;2023-10-09T05:23:26;30.48;;;8.02;;
48629;SDS011;34426;52.180;4.462;2023-10-09T05:25:51;25.70;;;7.75;;
48629;SDS011;34426;52.180;4.462;2023-10-09T05:28:17;24.70;;;8.40;;
48629;SDS011;34426;52.180;4.462;2023-10-09T05:30:42;38.90;;;8.73;;
48629;SDS011;34426;52.180;4.462;2023-10-09T05:33:08;23.90;;;8.05;;
48629;SDS011;34426;52.180;4.462;2023-10-09T05:35:33;23.38;;;8.23;;
48629;SDS011;34426;52.180;4.462;2023-10-09T05:37:59;25.45;;;8.95;;
48629;SDS011;34426;52.180;4.462;2023-10-09T05:40:26;26.27;;;8.32;;
48629;SDS011;34426;52.180;4.462;2023-10-09T05:42:51;24.05;;;7.38;;
48629;SDS011;34426;52.180;4.462;2023-10-09T05:45:17;20.73;;;7.50;;
48629;SDS011;34426;52.180;4.462;2023-10-09T05:47:42;23.73;;;6.95;;
48629;SDS011;34426;52.180;4.462;2023-10-09T05:50:08;24.67;;;7.88;;
48629;SDS011;34426;52.180;4.462;2023-10-09T05:52:34;31.80;;;8.07;;
48629;SDS011;34426;52.180;4.462;2023-10-09T05:55:00;20.02;;;6.90;;
48629;SDS011;34426;52.180;4.462;2023-10-09T05:57:27;21.55;;;7.25;;
48629;SDS011;34426;52.180;4.462;2023-10-09T05:59:52;23.83;;;7.88;;
48629;SDS011;34426;52.180;4.462;2023-10-09T06:02:17;25.70;;;8.27;;
48629;SDS011;34426;52.180;4.462;2023-10-09T06:04:43;24.52;;;7.35;;
48629;SDS011;34426;52.180;4.462;2023-10-09T06:07:08;21.05;;;7.65;;
48629;SDS011;34426;52.180;4.462;2023-10-09T06:09:34;25.35;;;7.45;;
48629;SDS011;34426;52.180;4.462;2023-10-09T06:11:59;29.52;;;7.05;;
48629;SDS011;34426;52.180;4.462;2023-10-09T06:14:26;31.30;;;7.53;;
48629;SDS011;34426;52.180;4.462;2023-10-09T06:16:52;21.58;;;7.22;;
48629;SDS011;34426;52.180;4.462;2023-10-09T06:19:18;30.65;;;7.63;;
48629;SDS011;34426;52.180;4.462;2023-10-09T06:21:43;19.42;;;7.72;;
48629;SDS011;34426;52.180;4.462;2023-10-09T06:24:09;21.63;;;7.78;;
48629;SDS011;34426;52.180;4.462;2023-10-09T06:26:35;24.25;;;8.38;;
48629;SDS011;34426;52.180;4.462;2023-10-09T06:29:00;31.67;;;7.82;;
48629;SDS011;34426;52.180;4.462;2023-10-09T06:31:27;28.00;;;8.95;;
48629;SDS011;34426;52.180;4.462;2023-10-09T06:33:53;23.20;;;7.38;;
48629;SDS011;34426;52.180;4.462;2023-10-09T06:36:18;22.80;;;7.97;;
48629;SDS011;34426;52.180;4.462;2023-10-09T06:38:43;30.65;;;8.15;;
48629;SDS011;34426;52.180;4.462;2023-10-09T06:41:09;26.45;;;8.02;;
48629;SDS011;34426;52.180;4.462;2023-10-09T06:43:34;17.73;;;8.02;;
48629;SDS011;34426;52.180;4.462;2023-10-09T06:46:00;25.08;;;7.97;;
48629;SDS011;34426;52.180;4.462;2023-10-09T06:48:27;29.95;;;7.57;;
48629;SDS011;34426;52.180;4.462;2023-10-09T06:50:52;25.25;;;7.05;;
48629;SDS011;34426;52.180;4.462;2023-10-09T06:53:18;25.17;;;8.52;;
48629;SDS011;34426;52.180;4.462;2023-10-09T06:55:43;32.35;;;7.90;;
48629;SDS011;34426;52.180;4.462;2023-10-09T06:58:09;27.83;;;7.72;;
48629;SDS011;34426;52.180;4.462;2023-10-09T07:00:37;23.50;;;7.75;;
48629;SDS011;34426;52.180;4.462;2023-10-09T07:03:03;19.67;;;7.00;;
48629;SDS011;34426;52.180;4.462;2023-10-09T07:05:30;21.83;;;7.20;;
48629;SDS011;34426;52.180;4.462;2023-10-09T07:07:56;26.05;;;7.18;;
48629;SDS011;34426;52.180;4.462;2023-10-09T07:10:21;26.23;;;7.32;;
48629;SDS011;34426;52.180;4.462;2023-10-09T07:12:47;25.45;;;7.32;;
48629;SDS011;34426;52.180;4.462;2023-10-09T07:15:13;27.90;;;7.60;;
48629;SDS011;34426;52.180;4.462;2023-10-09T07:17:38;25.55;;;8.07;;
48629;SDS011;34426;52.180;4.462;2023-10-09T07:20:04;18.73;;;7.32;;
48629;SDS011;34426;52.180;4.462;2023-10-09T07:22:32;27.00;;;7.70;;
48629;SDS011;34426;52.180;4.462;2023-10-09T07:24:57;22.33;;;7.45;;
48629;SDS011;34426;52.180;4.462;2023-10-09T07:27:23;20.13;;;7.43;;
48629;SDS011;34426;52.180;4.462;2023-10-09T07:29:48;22.65;;;7.03;;
48629;SDS011;34426;52.180;4.462;2023-10-09T07:32:14;21.45;;;6.82;;
48629;SDS011;34426;52.180;4.462;2023-10-09T07:34:40;25.80;;;7.30;;
48629;SDS011;34426;52.180;4.462;2023-10-09T07:37:05;24.55;;;6.82;;
48629;SDS011;34426;52.180;4.462;2023-10-09T07:39:32;19.52;;;7.18;;
48629;SDS011;34426;52.180;4.462;2023-10-09T07:41:57;25.88;;;7.75;;
48629;SDS011;34426;52.180;4.462;2023-10-09T07:44:23;20.63;;;6.97;;
48629;SDS011;34426;52.180;4.462;2023-10-09T07:46:48;22.45;;;6.82;;
48629;SDS011;34426;52.180;4.462;2023-10-09T07:49:14;22.55;;;8.15;;
48629;SDS011;34426;52.180;4.462;2023-10-09T07:51:39;27.05;;;7.25;;
48629;SDS011;34426;52.180;4.462;2023-10-09T07:54:05;22.42;;;7.55;;
48629;SDS011;34426;52.180;4.462;2023-10-09T07:56:32;26.85;;;7.60;;
48629;SDS011;34426;52.180;4.462;2023-10-09T07:58:58;19.95;;;6.55;;
48629;SDS011;34426;52.180;4.462;2023-10-09T08:01:23;21.48;;;6.53;;
48629;SDS011;34426;52.180;4.462;2023-10-09T08:03:49;27.08;;;7.65;;
48629;SDS011;34426;52.180;4.462;2023-10-09T08:06:15;25.85;;;7.13;;
48629;SDS011;34426;52.180;4.462;2023-10-09T08:08:41;26.55;;;7.43;;
48629;SDS011;34426;52.180;4.462;2023-10-09T08:11:09;22.63;;;7.25;;
48629;SDS011;34426;52.180;4.462;2023-10-09T08:13:36;21.17;;;7.13;;
48629;SDS011;34426;52.180;4.462;2023-10-09T08:16:01;22.70;;;7.10;;
48629;SDS011;34426;52.180;4.462;2023-10-09T08:18:27;19.88;;;6.93;;
48629;SDS011;34426;52.180;4.462;2023-10-09T08:20:52;20.83;;;7.00;;
48629;SDS011;34426;52.180;4.462;2023-10-09T08:23:18;23.58;;;8.05;;
48629;SDS011;34426;52.180;4.462;2023-10-09T08:25:43;23.33;;;7.10;;
48629;SDS011;34426;52.180;4.462;2023-10-09T08:28:09;20.90;;;6.55;;
48629;SDS011;34426;52.180;4.462;2023-10-09T08:30:35;28.25;;;7.18;;
48629;SDS011;34426;52.180;4.462;2023-10-09T08:33:01;25.67;;;6.72;;
48629;SDS011;34426;52.180;4.462;2023-10-09T08:35:27;17.92;;;6.68;;
48629;SDS011;34426;52.180;4.462;2023-10-09T08:37:52;25.52;;;6.18;;
48629;SDS011;34426;52.180;4.462;2023-10-09T08:40:18;26.60;;;6.70;;
48629;SDS011;34426;52.180;4.462;2023-10-09T08:42:44;19.85;;;6.65;;
48629;SDS011;34426;52.180;4.462;2023-10-09T08:45:13;24.17;;;7.55;;
48629;SDS011;34426;52.180;4.462;2023-10-09T08:47:41;20.95;;;6.32;;
48629;SDS011;34426;52.180;4.462;2023-10-09T08:50:07;24.52;;;6.28;;
48629;SDS011;34426;52.180;4.462;2023-10-09T08:52:33;17.75;;;5.50;;
48629;SDS011;34426;52.180;4.462;2023-10-09T08:54:58;24.98;;;6.63;;
48629;SDS011;34426;52.180;4.462;2023-10-09T08:57:23;19.25;;;6.10;;
48629;SDS011;34426;52.180;4.462;2023-10-09T08:59:49;21.20;;;6.10;;
48629;SDS011;34426;52.180;4.462;2023-10-09T09:02:14;19.45;;;6.50;;
48629;SDS011;34426;52.180;4.462;2023-10-09T09:04:41;20.02;;;6.35;;
48629;SDS011;34426;52.180;4.462;2023-10-09T09:07:21;17.60;;;6.05;;
48629;SDS011;34426;52.180;4.462;2023-10-09T09:09:54;19.42;;;6.32;;
48629;SDS011;34426;52.180;4.462;2023-10-09T09:12:20;19.38;;;6.13;;
48629;SDS011;34426;52.180;4.462;2023-10-09T09:14:45;19.85;;;6.07;;
48629;SDS011;34426;52.180;4.462;2023-10-09T09:17:11;14.02;;;5.65;;
48629;SDS011;34426;52.180;4.462;2023-10-09T09:19:48;20.27;;;6.93;;
48629;SDS011;34426;52.180;4.462;2023-10-09T09:22:14;22.08;;;6.93;;
48629;SDS011;34426;52.180;4.462;2023-10-09T09:24:40;16.55;;;6.03;;
48629;SDS011;34426;52.180;4.462;2023-10-09T09:27:06;17.98;;;7.00;;
48629;SDS011;34426;52.180;4.462;2023-10-09T09:29:38;23.52;;;7.30;;
48629;SDS011;34426;52.180;4.462;2023-10-09T09:32:05;13.32;;;6.22;;
48629;SDS011;34426;52.180;4.462;2023-10-09T09:34:33;18.08;;;5.68;;
48629;SDS011;34426;52.180;4.462;2023-10-09T09:37:10;20.27;;;6.75;;
48629;SDS011;34426;52.180;4.462;2023-10-09T09:39:35;21.27;;;6.72;;
48629;SDS011;34426;52.180;4.462;2023-10-09T09:42:01;24.50;;;7.28;;
48629;SDS011;34426;52.180;4.462;2023-10-09T09:44:26;20.70;;;7.00;;
48629;SDS011;34426;52.180;4.462;2023-10-09T09:46:52;15.80;;;5.88;;
48629;SDS011;34426;52.180;4.462;2023-10-09T09:49:20;24.50;;;6.88;;
48629;SDS011;34426;52.180;4.462;2023-10-09T09:51:46;17.15;;;6.20;;
48629;SDS011;34426;52.180;4.462;2023-10-09T09:54:13;21.73;;;7.22;;
48629;SDS011;34426;52.180;4.462;2023-10-09T09:56:39;18.83;;;6.45;;
48629;SDS011;34426;52.180;4.462;2023-10-09T09:59:08;18.00;;;6.68;;
48629;SDS011;34426;52.180;4.462;2023-10-09T10:01:34;15.95;;;5.93;;
48629;SDS011;34426;52.180;4.462;2023-10-09T10:04:03;16.27;;;6.47;;
48629;SDS011;34426;52.180;4.462;2023-10-09T10:06:32;26.77;;;7.18;;
48629;SDS011;34426;52.180;4.462;2023-10-09T10:08:59;19.42;;;6.20;;
48629;SDS011;34426;52.180;4.462;2023-10-09T10:14:09;16.58;;;6.63;;
48629;SDS011;34426;52.180;4.462;2023-10-09T10:16:37;14.63;;;5.93;;
48629;SDS011;34426;52.180;4.462;2023-10-09T10:19:26;13.18;;;6.47;;
48629;SDS011;34426;52.180;4.462;2023-10-09T10:22:25;22.80;;;6.72;;
48629;SDS011;34426;52.180;4.462;2023-10-09T10:24:51;16.00;;;6.05;;
48629;SDS011;34426;52.180;4.462;2023-10-09T10:27:18;15.23;;;5.88;;
48629;SDS011;34426;52.180;4.462;2023-10-09T10:29:45;18.27;;;6.45;;
48629;SDS011;34426;52.180;4.462;2023-10-09T10:32:11;16.65;;;6.32;;
48629;SDS011;34426;52.180;4.462;2023-10-09T10:37:18;15.85;;;6.32;;
48629;SDS011;34426;52.180;4.462;2023-10-09T10:39:49;21.05;;;6.95;;
48629;SDS011;34426;52.180;4.462;2023-10-09T10:42:15;27.17;;;7.13;;
48629;SDS011;34426;52.180;4.462;2023-10-09T10:44:42;17.95;;;6.80;;
48629;SDS011;34426;52.180;4.462;2023-10-09T10:47:08;21.35;;;6.75;;
48629;SDS011;34426;52.180;4.462;2023-10-09T10:49:34;23.65;;;6.63;;
48629;SDS011;34426;52.180;4.462;2023-10-09T10:52:00;16.42;;;6.40;;
48629;SDS011;34426;52.180;4.462;2023-10-09T10:54:25;20.50;;;7.72;;
48629;SDS011;34426;52.180;4.462;2023-10-09T10:56:51;17.13;;;5.72;;
48629;SDS011;34426;52.180;4.462;2023-10-09T10:59:17;16.50;;;6.28;;
48629;SDS011;34426;52.180;4.462;2023-10-09T11:01:45;13.55;;;6.25;;
48629;SDS011;34426;52.180;4.462;2023-10-09T11:04:11;15.98;;;5.75;;
48629;SDS011;34426;52.180;4.462;2023-10-09T11:06:37;17.95;;;6.45;;
48629;SDS011;34426;52.180;4.462;2023-10-09T11:09:02;17.83;;;6.70;;
48629;SDS011;34426;52.180;4.462;2023-10-09T11:11:29;15.05;;;6.22;;
48629;SDS011;34426;52.180;4.462;2023-10-09T11:13:54;14.73;;;6.20;;
48629;SDS011;34426;52.180;4.462;2023-10-09T11:16:36;18.13;;;6.43;;
48629;SDS011;34426;52.180;4.462;2023-10-09T11:19:03;21.08;;;6.72;;
48629;SDS011;34426;52.180;4.462;2023-10-09T11:21:28;17.58;;;6.65;;
48629;SDS011;34426;52.180;4.462;2023-10-09T11:23:54;22.00;;;6.55;;
48629;SDS011;34426;52.180;4.462;2023-10-09T11:26:19;18.02;;;6.95;;
48629;SDS011;34426;52.180;4.462;2023-10-09T11:28:46;17.35;;;5.90;;
48629;SDS011;34426;52.180;4.462;2023-10-09T11:31:30;20.23;;;6.28;;
48629;SDS011;34426;52.180;4.462;2023-10-09T11:33:55;16.77;;;6.35;;
48629;SDS011;34426;52.180;4.462;2023-10-09T11:36:22;17.25;;;6.50;;
48629;SDS011;34426;52.180;4.462;2023-10-09T11:38:48;17.75;;;6.32;;
48629;SDS011;34426;52.180;4.462;2023-10-09T11:41:13;18.02;;;6.57;;
48629;SDS011;34426;52.180;4.462;2023-10-09T11:43:49;18.98;;;6.35;;
48629;SDS011;34426;52.180;4.462;2023-10-09T11:46:15;14.60;;;6.00;;
48629;SDS011;34426;52.180;4.462;2023-10-09T11:48:40;26.52;;;6.30;;
48629;SDS011;34426;52.180;4.462;2023-10-09T11:51:11;22.55;;;6.65;;
48629;SDS011;34426;52.180;4.462;2023-10-09T11:53:41;18.65;;;6.50;;
48629;SDS011;34426;52.180;4.462;2023-10-09T11:56:07;16.98;;;6.93;;
48629;SDS011;34426;52.180;4.462;2023-10-09T11:58:32;15.27;;;6.47;;
48629;SDS011;34426;52.180;4.462;2023-10-09T12:00:58;19.60;;;6.55;;
48629;SDS011;34426;52.180;4.462;2023-10-09T12:03:24;18.70;;;7.18;;
48629;SDS011;34426;52.180;4.462;2023-10-09T12:05:50;18.05;;;6.43;;
48629;SDS011;34426;52.180;4.462;2023-10-09T12:08:15;22.85;;;7.32;;
48629;SDS011;34426;52.180;4.462;2023-10-09T12:10:42;21.77;;;6.65;;
48629;SDS011;34426;52.180;4.462;2023-10-09T12:13:08;13.07;;;6.57;;
48629;SDS011;34426;52.180;4.462;2023-10-09T12:15:33;21.77;;;6.40;;
48629;SDS011;34426;52.180;4.462;2023-10-09T12:17:59;20.08;;;6.88;;
48629;SDS011;34426;52.180;4.462;2023-10-09T12:20:24;15.88;;;6.80;;
48629;SDS011;34426;52.180;4.462;2023-10-09T12:22:50;18.35;;;6.43;;
48629;SDS011;34426;52.180;4.462;2023-10-09T12:25:15;22.42;;;7.13;;
48629;SDS011;34426;52.180;4.462;2023-10-09T12:27:42;18.42;;;6.53;;
48629;SDS011;34426;52.180;4.462;2023-10-09T12:30:08;22.15;;;6.68;;
48629;SDS011;34426;52.180;4.462;2023-10-09T12:32:34;24.70;;;6.47;;
48629;SDS011;34426;52.180;4.462;2023-10-09T12:34:59;19.67;;;7.00;;
48629;SDS011;34426;52.180;4.462;2023-10-09T12:37:25;27.00;;;6.80;;
48629;SDS011;34426;52.180;4.462;2023-10-09T12:39:50;13.25;;;6.40;;
48629;SDS011;34426;52.180;4.462;2023-10-09T12:42:16;30.15;;;8.05;;
48629;SDS011;34426;52.180;4.462;2023-10-09T12:44:42;17.98;;;7.43;;
48629;SDS011;34426;52.180;4.462;2023-10-09T12:47:08;16.88;;;7.45;;
48629;SDS011;34426;52.180;4.462;2023-10-09T12:49:34;22.02;;;7.20;;
48629;SDS011;34426;52.180;4.462;2023-10-09T12:51:59;20.77;;;6.72;;
48629;SDS011;34426;52.180;4.462;2023-10-09T12:54:25;22.25;;;6.90;;
48629;SDS011;34426;52.180;4.462;2023-10-09T12:56:50;16.63;;;6.60;;
48629;SDS011;34426;52.180;4.462;2023-10-09T12:59:16;29.15;;;7.13;;
48629;SDS011;34426;52.180;4.462;2023-10-09T13:01:43;21.85;;;6.97;;
48629;SDS011;34426;52.180;4.462;2023-10-09T13:04:09;22.00;;;6.85;;
48629;SDS011;34426;52.180;4.462;2023-10-09T13:06:34;20.27;;;6.85;;
48629;SDS011;34426;52.180;4.462;2023-10-09T13:09:00;18.85;;;6.90;;
48629;SDS011;34426;52.180;4.462;2023-10-09T13:11:25;17.75;;;7.15;;
48629;SDS011;34426;52.180;4.462;2023-10-09T13:13:51;23.00;;;7.07;;
48629;SDS011;34426;52.180;4.462;2023-10-09T13:16:17;18.35;;;7.50;;
48629;SDS011;34426;52.180;4.462;2023-10-09T13:18:44;23.35;;;7.28;;
48629;SDS011;34426;52.180;4.462;2023-10-09T13:21:10;24.80;;;7.20;;
48629;SDS011;34426;52.180;4.462;2023-10-09T13:23:35;14.13;;;6.82;;
48629;SDS011;34426;52.180;4.462;2023-10-09T13:26:01;18.50;;;6.95;;
48629;SDS011;34426;52.180;4.462;2023-10-09T13:28:26;19.67;;;6.57;;
48629;SDS011;34426;52.180;4.462;2023-10-09T13:30:52;17.20;;;6.80;;
48629;SDS011;34426;52.180;4.462;2023-10-09T13:33:17;24.92;;;7.15;;
48629;SDS011;34426;52.180;4.462;2023-10-09T13:35:44;18.75;;;6.60;;
48629;SDS011;34426;52.180;4.462;2023-10-09T13:38:09;20.17;;;6.85;;
48629;SDS011;34426;52.180;4.462;2023-10-09T13:40:35;17.98;;;7.00;;
48629;SDS011;34426;52.180;4.462;2023-10-09T13:43:00;14.68;;;6.93;;
48629;SDS011;34426;52.180;4.462;2023-10-09T13:45:26;19.77;;;7.30;;
48629;SDS011;34426;52.180;4.462;2023-10-09T13:47:51;22.48;;;6.75;;
48629;SDS011;34426;52.180;4.462;2023-10-09T13:50:17;21.75;;;7.25;;
48629;SDS011;34426;52.180;4.462;2023-10-09T13:52:44;21.00;;;7.35;;
48629;SDS011;34426;52.180;4.462;2023-10-09T13:55:09;22.88;;;7.22;;
48629;SDS011;34426;52.180;4.462;2023-10-09T13:57:35;19.85;;;6.90;;
48629;SDS011;34426;52.180;4.462;2023-10-09T14:00:00;17.38;;;6.22;;
48629;SDS011;34426;52.180;4.462;2023-10-09T14:02:26;20.00;;;7.18;;
48629;SDS011;34426;52.180;4.462;2023-10-09T14:04:51;19.35;;;7.03;;
48629;SDS011;34426;52.180;4.462;2023-10-09T14:07:17;18.13;;;6.53;;
48629;SDS011;34426;52.180;4.462;2023-10-09T14:09:44;20.30;;;7.53;;
48629;SDS011;34426;52.180;4.462;2023-10-09T14:12:09;19.13;;;7.60;;
48629;SDS011;34426;52.180;4.462;2023-10-09T14:14:35;19.02;;;7.28;;
48629;SDS011;34426;52.180;4.462;2023-10-09T14:17:02;23.23;;;8.15;;
48629;SDS011;34426;52.180;4.462;2023-10-09T14:19:27;27.40;;;8.27;;
48629;SDS011;34426;52.180;4.462;2023-10-09T14:21:53;23.10;;;7.03;;
48629;SDS011;34426;52.180;4.462;2023-10-09T14:24:18;22.25;;;7.35;;
48629;SDS011;34426;52.180;4.462;2023-10-09T14:26:45;25.60;;;8.15;;
48629;SDS011;34426;52.180;4.462;2023-10-09T14:29:11;23.77;;;7.93;;
48629;SDS011;34426;52.180;4.462;2023-10-09T14:31:36;22.00;;;8.00;;
48629;SDS011;34426;52.180;4.462;2023-10-09T14:34:02;22.65;;;7.32;;